Cumberland College, Kentucky
Current Conditions -  °F | °C
As of 10:53 PM on Wednesday 26 Nov 2014 (Local Time) from KLOZ Reporting Station
Overcast Overcast  
Wind Chill: 34°   Ceiling: 4500
Heat Index: 40°   Visibility: 10mi
Dew Point: 27°   Wind: 8mph
Humidity: 60%   Direction: 260°W
Pressure: 30.02"   Gusts: NA
Location:  36.7356°N, 84.1501°W
Report Text: KLOZ 270353Z AUTO 26007KT 10SM BKN045 OVC050 04/M03 A3002 RMK AO2 SLP170 T00441028
Loading
Personal Weather Stations






























Interactive Weather Map New forecast layout! Learn more

10-Day Weather Forecast

Advertisements
Track Severe Weather on mobile